sensor_id;sensor_type;location;lat;lon;timestamp;temperature;humidity
44886;DHT22;36669;51.428;21.162;2023-04-01T00:01:12;8.90;99.90
44886;DHT22;36669;51.428;21.162;2023-04-01T00:03:42;8.90;99.90
44886;DHT22;36669;51.428;21.162;2023-04-01T00:06:20;8.90;99.90
44886;DHT22;36669;51.428;21.162;2023-04-01T00:08:46;8.80;99.90
44886;DHT22;36669;51.428;21.162;2023-04-01T00:11:14;8.90;99.90
44886;DHT22;36669;51.428;21.162;2023-04-01T00:13:41;8.90;99.90
44886;DHT22;36669;51.428;21.162;2023-04-01T00:16:08;8.90;99.90
44886;DHT22;36669;51.428;21.162;2023-04-01T00:18:33;8.80;99.90
44886;DHT22;36669;51.428;21.162;2023-04-01T00:21:00;8.80;99.90
44886;DHT22;36669;51.428;21.162;2023-04-01T00:23:27;8.80;99.90
44886;DHT22;36669;51.428;21.162;2023-04-01T00:25:54;8.80;99.90
44886;DHT22;36669;51.428;21.162;2023-04-01T00:28:22;8.80;99.90
44886;DHT22;36669;51.428;21.162;2023-04-01T00:30:49;8.90;99.90
44886;DHT22;36669;51.428;21.162;2023-04-01T00:33:17;8.90;99.90
44886;DHT22;36669;51.428;21.162;2023-04-01T00:35:42;8.90;99.90
44886;DHT22;36669;51.428;21.162;2023-04-01T00:38:10;8.90;99.90
44886;DHT22;36669;51.428;21.162;2023-04-01T00:40:44;8.90;99.90
44886;DHT22;36669;51.428;21.162;2023-04-01T00:43:15;8.90;99.90
44886;DHT22;36669;51.428;21.162;2023-04-01T00:45:48;9.00;99.90
44886;DHT22;36669;51.428;21.162;2023-04-01T00:48:28;9.00;99.90
44886;DHT22;36669;51.428;21.162;2023-04-01T00:51:31;8.90;99.90
44886;DHT22;36669;51.428;21.162;2023-04-01T00:53:58;9.00;99.90
44886;DHT22;36669;51.428;21.162;2023-04-01T00:56:48;8.90;99.90
44886;DHT22;36669;51.428;21.162;2023-04-01T00:59:21;9.00;99.90
44886;DHT22;36669;51.428;21.162;2023-04-01T01:01:49;9.00;99.90
44886;DHT22;36669;51.428;21.162;2023-04-01T01:04:31;9.10;99.90
44886;DHT22;36669;51.428;21.162;2023-04-01T01:10:24;9.20;99.90
44886;DHT22;36669;51.428;21.162;2023-04-01T01:25:33;9.20;99.90
44886;DHT22;36669;51.428;21.162;2023-04-01T01:31:16;9.10;99.90
44886;DHT22;36669;51.428;21.162;2023-04-01T01:36:53;9.20;99.90
44886;DHT22;36669;51.428;21.162;2023-04-01T01:39:28;9.20;99.90
44886;DHT22;36669;51.428;21.162;2023-04-01T01:42:03;9.20;99.90
44886;DHT22;36669;51.428;21.162;2023-04-01T01:44:33;9.10;99.90
44886;DHT22;36669;51.428;21.162;2023-04-01T01:47:01;9.10;99.90
44886;DHT22;36669;51.428;21.162;2023-04-01T01:49:30;9.00;99.90
44886;DHT22;36669;51.428;21.162;2023-04-01T01:51:58;9.00;99.90
44886;DHT22;36669;51.428;21.162;2023-04-01T01:54:27;9.00;99.90
44886;DHT22;36669;51.428;21.162;2023-04-01T01:57:06;9.00;99.90
44886;DHT22;36669;51.428;21.162;2023-04-01T01:59:35;8.90;99.90
44886;DHT22;36669;51.428;21.162;2023-04-01T02:02:06;8.90;99.90
44886;DHT22;36669;51.428;21.162;2023-04-01T02:04:39;8.90;99.90
44886;DHT22;36669;51.428;21.162;2023-04-01T02:07:21;8.90;99.90
44886;DHT22;36669;51.428;21.162;2023-04-01T02:09:49;8.80;99.90
44886;DHT22;36669;51.428;21.162;2023-04-01T02:12:19;8.80;99.90
44886;DHT22;36669;51.428;21.162;2023-04-01T02:15:09;8.80;99.90
44886;DHT22;36669;51.428;21.162;2023-04-01T02:17:42;8.70;99.90
44886;DHT22;36669;51.428;21.162;2023-04-01T02:20:22;8.70;99.90
44886;DHT22;36669;51.428;21.162;2023-04-01T02:22:56;8.60;99.90
44886;DHT22;36669;51.428;21.162;2023-04-01T02:25:33;8.60;99.90
44886;DHT22;36669;51.428;21.162;2023-04-01T02:28:12;8.50;99.90
44886;DHT22;36669;51.428;21.162;2023-04-01T02:30:48;8.50;99.90
44886;DHT22;36669;51.428;21.162;2023-04-01T02:33:17;8.50;99.90
44886;DHT22;36669;51.428;21.162;2023-04-01T02:35:45;8.50;99.90
44886;DHT22;36669;51.428;21.162;2023-04-01T02:38:12;8.40;99.90
44886;DHT22;36669;51.428;21.162;2023-04-01T02:40:50;8.40;99.90
44886;DHT22;36669;51.428;21.162;2023-04-01T02:43:17;8.30;99.90
44886;DHT22;36669;51.428;21.162;2023-04-01T02:45:45;8.30;99.90
44886;DHT22;36669;51.428;21.162;2023-04-01T02:48:12;8.30;99.90
44886;DHT22;36669;51.428;21.162;2023-04-01T02:50:42;8.30;99.90
44886;DHT22;36669;51.428;21.162;2023-04-01T02:53:09;8.30;99.90
44886;DHT22;36669;51.428;21.162;2023-04-01T02:55:35;8.20;99.90
44886;DHT22;36669;51.428;21.162;2023-04-01T02:58:02;8.30;99.90
44886;DHT22;36669;51.428;21.162;2023-04-01T03:00:31;8.20;99.90
44886;DHT22;36669;51.428;21.162;2023-04-01T03:02:57;8.20;99.90
44886;DHT22;36669;51.428;21.162;2023-04-01T03:05:24;8.20;99.90
44886;DHT22;36669;51.428;21.162;2023-04-01T03:07:51;8.20;99.90
44886;DHT22;36669;51.428;21.162;2023-04-01T03:10:20;8.20;99.90
44886;DHT22;36669;51.428;21.162;2023-04-01T03:12:48;8.20;99.90
44886;DHT22;36669;51.428;21.162;2023-04-01T03:15:15;8.20;99.90
44886;DHT22;36669;51.428;21.162;2023-04-01T03:17:43;8.20;99.90
44886;DHT22;36669;51.428;21.162;2023-04-01T03:20:13;8.20;99.90
44886;DHT22;36669;51.428;21.162;2023-04-01T03:22:39;8.20;99.90
44886;DHT22;36669;51.428;21.162;2023-04-01T03:25:06;8.20;99.90
44886;DHT22;36669;51.428;21.162;2023-04-01T03:27:34;8.20;99.90
44886;DHT22;36669;51.428;21.162;2023-04-01T03:30:08;8.30;99.90
44886;DHT22;36669;51.428;21.162;2023-04-01T03:32:36;8.30;99.90
44886;DHT22;36669;51.428;21.162;2023-04-01T03:35:04;8.30;99.90
44886;DHT22;36669;51.428;21.162;2023-04-01T03:37:33;8.30;99.90
44886;DHT22;36669;51.428;21.162;2023-04-01T03:40:00;8.30;99.90
44886;DHT22;36669;51.428;21.162;2023-04-01T03:42:28;8.40;99.90
44886;DHT22;36669;51.428;21.162;2023-04-01T03:44:57;8.40;99.90
44886;DHT22;36669;51.428;21.162;2023-04-01T03:47:25;8.50;99.90
44886;DHT22;36669;51.428;21.162;2023-04-01T03:49:52;8.50;99.90
44886;DHT22;36669;51.428;21.162;2023-04-01T03:52:20;8.50;99.90
44886;DHT22;36669;51.428;21.162;2023-04-01T03:54:45;8.40;99.90
44886;DHT22;36669;51.428;21.162;2023-04-01T03:57:11;8.40;99.90
44886;DHT22;36669;51.428;21.162;2023-04-01T03:59:38;8.50;99.90
44886;DHT22;36669;51.428;21.162;2023-04-01T04:02:10;8.50;99.90
44886;DHT22;36669;51.428;21.162;2023-04-01T04:04:38;8.50;99.90
44886;DHT22;36669;51.428;21.162;2023-04-01T04:07:04;8.50;99.90
44886;DHT22;36669;51.428;21.162;2023-04-01T04:09:31;8.50;99.90
44886;DHT22;36669;51.428;21.162;2023-04-01T04:11:59;8.50;99.90
44886;DHT22;36669;51.428;21.162;2023-04-01T04:14:27;8.50;99.90
44886;DHT22;36669;51.428;21.162;2023-04-01T04:16:54;8.40;99.90
44886;DHT22;36669;51.428;21.162;2023-04-01T04:19:21;8.40;99.90
44886;DHT22;36669;51.428;21.162;2023-04-01T04:21:48;8.40;99.90
44886;DHT22;36669;51.428;21.162;2023-04-01T04:24:17;8.30;99.90
44886;DHT22;36669;51.428;21.162;2023-04-01T04:26:43;8.30;99.90
44886;DHT22;36669;51.428;21.162;2023-04-01T04:29:10;8.20;99.90
44886;DHT22;36669;51.428;21.162;2023-04-01T04:31:39;8.20;99.90
44886;DHT22;36669;51.428;21.162;2023-04-01T04:34:05;8.20;99.90
44886;DHT22;36669;51.428;21.162;2023-04-01T04:36:32;8.20;99.90
44886;DHT22;36669;51.428;21.162;2023-04-01T04:39:02;8.10;99.90
44886;DHT22;36669;51.428;21.162;2023-04-01T04:41:30;8.10;99.90
44886;DHT22;36669;51.428;21.162;2023-04-01T04:43:58;8.10;99.90
44886;DHT22;36669;51.428;21.162;2023-04-01T04:46:25;8.00;99.90
44886;DHT22;36669;51.428;21.162;2023-04-01T04:48:51;8.00;99.90
44886;DHT22;36669;51.428;21.162;2023-04-01T04:51:22;8.00;99.90
44886;DHT22;36669;51.428;21.162;2023-04-01T04:53:52;8.00;99.90
44886;DHT22;36669;51.428;21.162;2023-04-01T04:56:19;7.90;99.90
44886;DHT22;36669;51.428;21.162;2023-04-01T04:58:46;7.90;99.90
44886;DHT22;36669;51.428;21.162;2023-04-01T05:01:24;7.90;99.90
44886;DHT22;36669;51.428;21.162;2023-04-01T05:03:52;7.90;99.90
44886;DHT22;36669;51.428;21.162;2023-04-01T05:06:20;7.90;99.90
44886;DHT22;36669;51.428;21.162;2023-04-01T05:08:47;7.90;99.90
44886;DHT22;36669;51.428;21.162;2023-04-01T05:11:33;7.90;99.90
44886;DHT22;36669;51.428;21.162;2023-04-01T05:14:02;8.00;99.90
44886;DHT22;36669;51.428;21.162;2023-04-01T05:16:29;8.10;99.90
44886;DHT22;36669;51.428;21.162;2023-04-01T05:18:56;8.10;99.90
44886;DHT22;36669;51.428;21.162;2023-04-01T05:21:23;8.10;99.90
44886;DHT22;36669;51.428;21.162;2023-04-01T05:23:51;8.20;99.90
44886;DHT22;36669;51.428;21.162;2023-04-01T05:26:18;8.20;99.90
44886;DHT22;36669;51.428;21.162;2023-04-01T05:28:46;8.20;99.90
44886;DHT22;36669;51.428;21.162;2023-04-01T05:31:12;8.30;99.90
44886;DHT22;36669;51.428;21.162;2023-04-01T05:33:38;8.30;99.90
44886;DHT22;36669;51.428;21.162;2023-04-01T05:36:14;8.30;99.90
44886;DHT22;36669;51.428;21.162;2023-04-01T05:38:42;8.40;99.90
44886;DHT22;36669;51.428;21.162;2023-04-01T05:41:11;8.50;99.90
44886;DHT22;36669;51.428;21.162;2023-04-01T05:43:40;8.50;99.90
44886;DHT22;36669;51.428;21.162;2023-04-01T05:46:06;8.50;99.90
44886;DHT22;36669;51.428;21.162;2023-04-01T05:48:33;8.50;99.90
44886;DHT22;36669;51.428;21.162;2023-04-01T05:51:05;8.50;99.90
44886;DHT22;36669;51.428;21.162;2023-04-01T05:53:32;8.50;99.90
44886;DHT22;36669;51.428;21.162;2023-04-01T05:56:02;8.60;99.90
44886;DHT22;36669;51.428;21.162;2023-04-01T05:58:30;8.70;99.90
44886;DHT22;36669;51.428;21.162;2023-04-01T06:01:05;8.80;99.90
44886;DHT22;36669;51.428;21.162;2023-04-01T06:03:35;8.80;99.90
44886;DHT22;36669;51.428;21.162;2023-04-01T06:06:13;9.00;99.90
44886;DHT22;36669;51.428;21.162;2023-04-01T06:08:44;9.10;99.90
44886;DHT22;36669;51.428;21.162;2023-04-01T06:11:14;9.20;99.90
44886;DHT22;36669;51.428;21.162;2023-04-01T06:26:34;9.30;99.90
44886;DHT22;36669;51.428;21.162;2023-04-01T06:35:29;9.50;99.90
44886;DHT22;36669;51.428;21.162;2023-04-01T06:50:18;9.50;99.90
44886;DHT22;36669;51.428;21.162;2023-04-01T06:58:41;9.40;99.90
44886;DHT22;36669;51.428;21.162;2023-04-01T07:01:21;9.50;99.90
44886;DHT22;36669;51.428;21.162;2023-04-01T07:07:14;9.70;99.90
44886;DHT22;36669;51.428;21.162;2023-04-01T07:09:45;9.70;99.90
44886;DHT22;36669;51.428;21.162;2023-04-01T07:12:40;9.70;99.90
44886;DHT22;36669;51.428;21.162;2023-04-01T07:15:28;9.80;99.90
44886;DHT22;36669;51.428;21.162;2023-04-01T07:18:15;9.90;99.90
44886;DHT22;36669;51.428;21.162;2023-04-01T07:20:43;9.90;99.90
44886;DHT22;36669;51.428;21.162;2023-04-01T07:23:56;9.90;99.90
44886;DHT22;36669;51.428;21.162;2023-04-01T07:26:33;10.00;99.90
44886;DHT22;36669;51.428;21.162;2023-04-01T07:29:00;9.90;99.90
44886;DHT22;36669;51.428;21.162;2023-04-01T07:41:01;9.80;99.90
44886;DHT22;36669;51.428;21.162;2023-04-01T07:50:52;10.00;99.90
44886;DHT22;36669;51.428;21.162;2023-04-01T08:02:27;10.20;99.90
44886;DHT22;36669;51.428;21.162;2023-04-01T08:05:25;10.30;99.90
44886;DHT22;36669;51.428;21.162;2023-04-01T08:17:02;10.50;99.90
44886;DHT22;36669;51.428;21.162;2023-04-01T08:22:32;10.40;99.90
44886;DHT22;36669;51.428;21.162;2023-04-01T08:25:03;10.60;99.90
44886;DHT22;36669;51.428;21.162;2023-04-01T08:27:44;10.80;99.90
44886;DHT22;36669;51.428;21.162;2023-04-01T08:33:29;10.90;99.90
44886;DHT22;36669;51.428;21.162;2023-04-01T08:36:28;11.00;99.90
44886;DHT22;36669;51.428;21.162;2023-04-01T08:39:09;11.00;99.90
44886;DHT22;36669;51.428;21.162;2023-04-01T08:54:31;11.30;99.90
44886;DHT22;36669;51.428;21.162;2023-04-01T08:57:28;11.40;99.90
44886;DHT22;36669;51.428;21.162;2023-04-01T09:06:29;11.40;99.90
44886;DHT22;36669;51.428;21.162;2023-04-01T09:18:03;12.00;99.90
44886;DHT22;36669;51.428;21.162;2023-04-01T09:21:04;12.00;99.90
44886;DHT22;36669;51.428;21.162;2023-04-01T09:23:59;12.00;99.90
44886;DHT22;36669;51.428;21.162;2023-04-01T09:33:28;12.10;99.90
44886;DHT22;36669;51.428;21.162;2023-04-01T09:36:21;12.10;99.90
44886;DHT22;36669;51.428;21.162;2023-04-01T09:39:46;12.20;99.90
44886;DHT22;36669;51.428;21.162;2023-04-01T09:42:21;12.30;99.90
44886;DHT22;36669;51.428;21.162;2023-04-01T09:45:16;12.20;99.90
44886;DHT22;36669;51.428;21.162;2023-04-01T09:48:14;12.00;99.90
44886;DHT22;36669;51.428;21.162;2023-04-01T10:00:09;11.70;99.90
44886;DHT22;36669;51.428;21.162;2023-04-01T10:11:50;11.50;99.90
44886;DHT22;36669;51.428;21.162;2023-04-01T11:04:01;12.50;99.90
44886;DHT22;36669;51.428;21.162;2023-04-01T11:10:07;12.60;99.90
44886;DHT22;36669;51.428;21.162;2023-04-01T11:28:10;12.40;99.90
44886;DHT22;36669;51.428;21.162;2023-04-01T11:30:59;12.40;99.90
44886;DHT22;36669;51.428;21.162;2023-04-01T11:43:08;12.70;99.90
44886;DHT22;36669;51.428;21.162;2023-04-01T12:12:38;13.90;99.90
44886;DHT22;36669;51.428;21.162;2023-04-01T12:21:17;13.90;99.90
44886;DHT22;36669;51.428;21.162;2023-04-01T12:23:55;14.00;99.90
44886;DHT22;36669;51.428;21.162;2023-04-01T12:26:54;14.20;99.90
44886;DHT22;36669;51.428;21.162;2023-04-01T12:39:27;13.50;99.90
44886;DHT22;36669;51.428;21.162;2023-04-01T12:59:21;12.40;99.90
44886;DHT22;36669;51.428;21.162;2023-04-01T13:16:38;13.20;99.90
44886;DHT22;36669;51.428;21.162;2023-04-01T13:19:33;13.40;99.90
44886;DHT22;36669;51.428;21.162;2023-04-01T13:24:53;13.00;99.90
44886;DHT22;36669;51.428;21.162;2023-04-01T13:27:43;12.90;99.90
44886;DHT22;36669;51.428;21.162;2023-04-01T13:30:33;12.60;99.90
44886;DHT22;36669;51.428;21.162;2023-04-01T13:33:42;12.60;99.90
44886;DHT22;36669;51.428;21.162;2023-04-01T13:44:52;11.90;99.90
44886;DHT22;36669;51.428;21.162;2023-04-01T13:48:00;11.70;99.90
44886;DHT22;36669;51.428;21.162;2023-04-01T13:58:58;11.40;99.90
44886;DHT22;36669;51.428;21.162;2023-04-01T14:10:34;10.90;99.90
44886;DHT22;36669;51.428;21.162;2023-04-01T14:26:10;9.90;99.90
44886;DHT22;36669;51.428;21.162;2023-04-01T14:50:18;9.70;99.90
44886;DHT22;36669;51.428;21.162;2023-04-01T14:55:54;9.60;99.90
44886;DHT22;36669;51.428;21.162;2023-04-01T14:58:24;9.60;99.90
44886;DHT22;36669;51.428;21.162;2023-04-01T15:01:17;9.70;99.90
44886;DHT22;36669;51.428;21.162;2023-04-01T15:09:54;9.90;99.90
44886;DHT22;36669;51.428;21.162;2023-04-01T15:12:34;10.10;99.90
44886;DHT22;36669;51.428;21.162;2023-04-01T15:18:56;10.40;99.90
44886;DHT22;36669;51.428;21.162;2023-04-01T15:28:28;11.40;99.90
44886;DHT22;36669;51.428;21.162;2023-04-01T15:31:19;11.40;99.90
44886;DHT22;36669;51.428;21.162;2023-04-01T15:34:25;11.50;99.90
44886;DHT22;36669;51.428;21.162;2023-04-01T15:37:13;12.20;99.90
44886;DHT22;36669;51.428;21.162;2023-04-01T16:03:22;11.20;99.90
44886;DHT22;36669;51.428;21.162;2023-04-01T16:06:11;11.20;99.90
44886;DHT22;36669;51.428;21.162;2023-04-01T16:18:38;10.40;99.90
44886;DHT22;36669;51.428;21.162;2023-04-01T16:24:24;10.40;99.90
44886;DHT22;36669;51.428;21.162;2023-04-01T16:27:25;10.30;99.90
44886;DHT22;36669;51.428;21.162;2023-04-01T16:30:37;10.30;99.90
44886;DHT22;36669;51.428;21.162;2023-04-01T16:36:49;10.20;99.90
44886;DHT22;36669;51.428;21.162;2023-04-01T16:42:12;10.10;99.90
44886;DHT22;36669;51.428;21.162;2023-04-01T16:45:23;10.00;99.90
44886;DHT22;36669;51.428;21.162;2023-04-01T16:47:49;10.00;99.90
44886;DHT22;36669;51.428;21.162;2023-04-01T16:50:25;9.90;99.90
44886;DHT22;36669;51.428;21.162;2023-04-01T16:53:02;9.90;99.90
44886;DHT22;36669;51.428;21.162;2023-04-01T16:55:54;9.90;99.90
44886;DHT22;36669;51.428;21.162;2023-04-01T17:01:26;9.90;99.90
44886;DHT22;36669;51.428;21.162;2023-04-01T17:03:58;9.90;99.90
44886;DHT22;36669;51.428;21.162;2023-04-01T17:06:49;9.80;99.90
44886;DHT22;36669;51.428;21.162;2023-04-01T17:24:05;9.90;99.90
44886;DHT22;36669;51.428;21.162;2023-04-01T17:26:51;9.90;99.90
44886;DHT22;36669;51.428;21.162;2023-04-01T17:35:53;9.80;99.90
44886;DHT22;36669;51.428;21.162;2023-04-01T17:47:52;9.50;99.90
44886;DHT22;36669;51.428;21.162;2023-04-01T17:50:42;9.50;99.90
44886;DHT22;36669;51.428;21.162;2023-04-01T17:53:19;9.40;99.90
44886;DHT22;36669;51.428;21.162;2023-04-01T17:56:25;9.40;99.90
44886;DHT22;36669;51.428;21.162;2023-04-01T17:59:13;9.40;99.90
44886;DHT22;36669;51.428;21.162;2023-04-01T18:02:21;9.30;99.90
44886;DHT22;36669;51.428;21.162;2023-04-01T18:05:19;9.30;99.90
44886;DHT22;36669;51.428;21.162;2023-04-01T18:20:07;9.10;99.90
44886;DHT22;36669;51.428;21.162;2023-04-01T18:25:38;8.90;99.90
44886;DHT22;36669;51.428;21.162;2023-04-01T18:31:24;8.90;99.90
44886;DHT22;36669;51.428;21.162;2023-04-01T18:34:02;8.90;99.90
44886;DHT22;36669;51.428;21.162;2023-04-01T18:36:48;8.80;99.90
44886;DHT22;36669;51.428;21.162;2023-04-01T18:39:40;8.80;99.90
44886;DHT22;36669;51.428;21.162;2023-04-01T18:42:46;8.80;99.90
44886;DHT22;36669;51.428;21.162;2023-04-01T18:48:48;8.70;99.90
44886;DHT22;36669;51.428;21.162;2023-04-01T18:51:47;8.60;99.90
44886;DHT22;36669;51.428;21.162;2023-04-01T18:57:55;8.60;99.90
44886;DHT22;36669;51.428;21.162;2023-04-01T19:00:43;8.60;99.90
44886;DHT22;36669;51.428;21.162;2023-04-01T19:06:29;8.50;99.90
44886;DHT22;36669;51.428;21.162;2023-04-01T19:09:32;8.40;99.90
44886;DHT22;36669;51.428;21.162;2023-04-01T19:18:16;8.30;99.90
44886;DHT22;36669;51.428;21.162;2023-04-01T19:20:59;8.30;99.90
44886;DHT22;36669;51.428;21.162;2023-04-01T19:26:56;8.30;99.90
44886;DHT22;36669;51.428;21.162;2023-04-01T19:35:23;8.20;99.90
44886;DHT22;36669;51.428;21.162;2023-04-01T19:38:08;8.20;99.90
44886;DHT22;36669;51.428;21.162;2023-04-01T19:40:54;8.20;99.90
44886;DHT22;36669;51.428;21.162;2023-04-01T19:43:33;8.20;99.90
44886;DHT22;36669;51.428;21.162;2023-04-01T19:46:30;8.20;99.90
44886;DHT22;36669;51.428;21.162;2023-04-01T19:51:53;8.20;99.90
44886;DHT22;36669;51.428;21.162;2023-04-01T20:00:23;8.20;99.90
44886;DHT22;36669;51.428;21.162;2023-04-01T20:03:09;8.20;99.90
44886;DHT22;36669;51.428;21.162;2023-04-01T20:06:11;8.20;99.90
44886;DHT22;36669;51.428;21.162;2023-04-01T20:09:25;8.20;99.90
44886;DHT22;36669;51.428;21.162;2023-04-01T20:12:07;8.20;99.90
44886;DHT22;36669;51.428;21.162;2023-04-01T20:14:50;8.10;99.90
44886;DHT22;36669;51.428;21.162;2023-04-01T20:17:31;8.10;99.90
44886;DHT22;36669;51.428;21.162;2023-04-01T20:26:03;8.10;99.90
44886;DHT22;36669;51.428;21.162;2023-04-01T20:28:54;8.10;99.90
44886;DHT22;36669;51.428;21.162;2023-04-01T20:31:34;8.00;99.90
44886;DHT22;36669;51.428;21.162;2023-04-01T20:43:14;7.90;99.90
44886;DHT22;36669;51.428;21.162;2023-04-01T20:46:07;7.90;99.90
44886;DHT22;36669;51.428;21.162;2023-04-01T20:51:32;7.80;99.90
44886;DHT22;36669;51.428;21.162;2023-04-01T21:11:41;7.80;99.90
44886;DHT22;36669;51.428;21.162;2023-04-01T21:32:24;7.80;99.90
44886;DHT22;36669;51.428;21.162;2023-04-01T21:47:10;7.90;99.90
44886;DHT22;36669;51.428;21.162;2023-04-01T21:53:04;7.80;99.90
44886;DHT22;36669;51.428;21.162;2023-04-01T22:07:25;7.90;99.90
44886;DHT22;36669;51.428;21.162;2023-04-01T22:13:01;7.80;99.90
44886;DHT22;36669;51.428;21.162;2023-04-01T22:18:42;7.80;99.90
44886;DHT22;36669;51.428;21.162;2023-04-01T22:21:39;7.70;99.90
44886;DHT22;36669;51.428;21.162;2023-04-01T22:30:19;7.70;99.90
44886;DHT22;36669;51.428;21.162;2023-04-01T22:36:30;7.70;99.90
44886;DHT22;36669;51.428;21.162;2023-04-01T22:42:48;7.70;99.90
44886;DHT22;36669;51.428;21.162;2023-04-01T22:54:31;7.70;99.90
44886;DHT22;36669;51.428;21.162;2023-04-01T23:00:01;7.70;99.90
44886;DHT22;36669;51.428;21.162;2023-04-01T23:02:44;7.70;99.90
44886;DHT22;36669;51.428;21.162;2023-04-01T23:05:15;7.70;99.90
44886;DHT22;36669;51.428;21.162;2023-04-01T23:10:54;7.70;99.90
44886;DHT22;36669;51.428;21.162;2023-04-01T23:13:31;7.70;99.90
44886;DHT22;36669;51.428;21.162;2023-04-01T23:15:58;7.70;99.90
44886;DHT22;36669;51.428;21.162;2023-04-01T23:18:52;7.60;99.90
44886;DHT22;36669;51.428;21.162;2023-04-01T23:21:38;7.60;99.90
44886;DHT22;36669;51.428;21.162;2023-04-01T23:27:33;7.60;99.90
44886;DHT22;36669;51.428;21.162;2023-04-01T23:33:31;7.60;99.90
44886;DHT22;36669;51.428;21.162;2023-04-01T23:36:00;7.60;99.90
44886;DHT22;36669;51.428;21.162;2023-04-01T23:38:37;7.60;99.90
44886;DHT22;36669;51.428;21.162;2023-04-01T23:41:19;7.60;99.90
44886;DHT22;36669;51.428;21.162;2023-04-01T23:43:56;7.50;99.90
44886;DHT22;36669;51.428;21.162;2023-04-01T23:46:28;7.60;99.90
44886;DHT22;36669;51.428;21.162;2023-04-01T23:49:24;7.50;99.90
44886;DHT22;36669;51.428;21.162;2023-04-01T23:52:02;7.50;99.90
44886;DHT22;36669;51.428;21.162;2023-04-01T23:57:26;7.50;99.90
